Página principal
METAR-TAF:

METAR-TAF

Aeroportos :

Castries, Santa Lúcia

latitude: 14-01N, longitude: 061-00W, altura: 2 m

Observação actual do tempo

O boletim foi feito há 54 minutos, às 00:00 UTC
Vento 10 kt de este
Temperatura 27°C
Humidade 74%
Pressão 1014 hPa
Visibilidade 10 km ou mais
Nuvens dispersasa uma altura de 2300 ft

METAR: TLPC 160000Z 09010KT 9999 SCT023 27/22 Q1014 NOSIG

Hora: 20:54 (00:54 UTC)

Previsão

O boletim foi feito há 1 hora e 54 minutos, às 23:00 UTC
Previsão válida de 16 às 00 UTC a 16 às 24 UTC
Vento 10 kt de este com rajadas de 20 kt
Visibilidade 10 km ou mais
Nuvens dispersasa uma altura de 2500 ft

TAF: TLPC 152300Z 1600/1624 09010G20KT 9999 SCT025

Observações e previsões do tempo de mais de 4000 aeroportos (mensagens METAR e TAF).

As estações disponíveis são os pontos amarelos e vermelhos sobre o mapa.

Mova o rato sobre o mapa para ver o nome da estação.

Depois clique no ponto para visualizar as observações e previsões meteorológicas.

Para alterar o mapa : clique nos botões verdes com uma cruz preta para aumentar o zoom; no botão verde com uma pitada de zoom; ou nas setas verdes para mapas adjacentes.


METAR-TAF: